sensor_id;sensor_type;location;lat;lon;timestamp;P1;durP1;ratioP1;P2;durP2;ratioP2
38717;SDS011;24468;52.128;9.278;2023-06-05T00:01:36;2.17;;;1.10;;
38717;SDS011;24468;52.128;9.278;2023-06-05T00:04:02;2.03;;;1.10;;
38717;SDS011;24468;52.128;9.278;2023-06-05T00:06:29;3.00;;;1.52;;
38717;SDS011;24468;52.128;9.278;2023-06-05T00:08:55;1.98;;;1.67;;
38717;SDS011;24468;52.128;9.278;2023-06-05T00:11:21;3.13;;;1.30;;
38717;SDS011;24468;52.128;9.278;2023-06-05T00:13:47;2.22;;;1.50;;
38717;SDS011;24468;52.128;9.278;2023-06-05T00:16:13;3.20;;;1.92;;
38717;SDS011;24468;52.128;9.278;2023-06-05T00:18:39;5.53;;;2.08;;
38717;SDS011;24468;52.128;9.278;2023-06-05T00:21:04;3.80;;;1.60;;
38717;SDS011;24468;52.128;9.278;2023-06-05T00:23:30;1.27;;;1.10;;
38717;SDS011;24468;52.128;9.278;2023-06-05T00:25:56;3.00;;;2.22;;
38717;SDS011;24468;52.128;9.278;2023-06-05T00:28:22;3.22;;;1.42;;
38717;SDS011;24468;52.128;9.278;2023-06-05T00:30:49;3.13;;;1.75;;
38717;SDS011;24468;52.128;9.278;2023-06-05T00:33:14;4.35;;;2.00;;
38717;SDS011;24468;52.128;9.278;2023-06-05T00:35:40;2.13;;;1.40;;
38717;SDS011;24468;52.128;9.278;2023-06-05T00:38:05;4.32;;;2.10;;
38717;SDS011;24468;52.128;9.278;2023-06-05T00:40:31;2.05;;;1.20;;
38717;SDS011;24468;52.128;9.278;2023-06-05T00:42:57;3.13;;;1.55;;
38717;SDS011;24468;52.128;9.278;2023-06-05T00:45:23;4.18;;;2.10;;
38717;SDS011;24468;52.128;9.278;2023-06-05T00:47:49;3.08;;;1.77;;
38717;SDS011;24468;52.128;9.278;2023-06-05T00:50:14;3.15;;;2.03;;
38717;SDS011;24468;52.128;9.278;2023-06-05T00:52:42;4.22;;;1.77;;
38717;SDS011;24468;52.128;9.278;2023-06-05T00:55:09;4.03;;;2.00;;
38717;SDS011;24468;52.128;9.278;2023-06-05T00:57:37;4.30;;;2.42;;
38717;SDS011;24468;52.128;9.278;2023-06-05T01:00:04;4.80;;;1.90;;
38717;SDS011;24468;52.128;9.278;2023-06-05T01:02:34;2.35;;;1.63;;
38717;SDS011;24468;52.128;9.278;2023-06-05T01:05:02;2.78;;;2.28;;
38717;SDS011;24468;52.128;9.278;2023-06-05T01:07:29;3.33;;;1.80;;
38717;SDS011;24468;52.128;9.278;2023-06-05T01:09:58;2.85;;;1.73;;
38717;SDS011;24468;52.128;9.278;2023-06-05T01:15:50;2.58;;;1.88;;
38717;SDS011;24468;52.128;9.278;2023-06-05T01:18:18;4.85;;;2.55;;
38717;SDS011;24468;52.128;9.278;2023-06-05T01:20:47;3.45;;;1.98;;
38717;SDS011;24468;52.128;9.278;2023-06-05T01:23:12;2.28;;;2.00;;
38717;SDS011;24468;52.128;9.278;2023-06-05T01:25:38;2.67;;;1.50;;
38717;SDS011;24468;52.128;9.278;2023-06-05T01:30:52;3.33;;;1.70;;
38717;SDS011;24468;52.128;9.278;2023-06-05T01:33:31;2.33;;;1.63;;
38717;SDS011;24468;52.128;9.278;2023-06-05T01:36:09;2.70;;;1.67;;
38717;SDS011;24468;52.128;9.278;2023-06-05T01:38:38;3.47;;;1.95;;
38717;SDS011;24468;52.128;9.278;2023-06-05T01:41:06;2.88;;;1.90;;
38717;SDS011;24468;52.128;9.278;2023-06-05T01:43:33;3.50;;;2.17;;
38717;SDS011;24468;52.128;9.278;2023-06-05T01:46:00;2.53;;;1.92;;
38717;SDS011;24468;52.128;9.278;2023-06-05T01:48:26;4.07;;;1.95;;
38717;SDS011;24468;52.128;9.278;2023-06-05T01:50:59;2.70;;;1.90;;
38717;SDS011;24468;52.128;9.278;2023-06-05T01:53:26;5.80;;;2.28;;
38717;SDS011;24468;52.128;9.278;2023-06-05T01:55:52;3.88;;;2.28;;
38717;SDS011;24468;52.128;9.278;2023-06-05T01:58:22;3.08;;;1.92;;
38717;SDS011;24468;52.128;9.278;2023-06-05T02:00:49;2.35;;;1.45;;
38717;SDS011;24468;52.128;9.278;2023-06-05T02:03:14;6.38;;;1.90;;
38717;SDS011;24468;52.128;9.278;2023-06-05T02:05:43;4.32;;;2.13;;
38717;SDS011;24468;52.128;9.278;2023-06-05T02:08:08;3.72;;;1.85;;
38717;SDS011;24468;52.128;9.278;2023-06-05T02:10:35;1.92;;;1.63;;
38717;SDS011;24468;52.128;9.278;2023-06-05T02:13:08;2.67;;;1.92;;
38717;SDS011;24468;52.128;9.278;2023-06-05T02:15:34;2.33;;;1.88;;
38717;SDS011;24468;52.128;9.278;2023-06-05T02:18:01;3.33;;;1.77;;
38717;SDS011;24468;52.128;9.278;2023-06-05T02:20:28;2.15;;;1.90;;
38717;SDS011;24468;52.128;9.278;2023-06-05T02:22:53;3.17;;;1.60;;
38717;SDS011;24468;52.128;9.278;2023-06-05T02:25:19;2.38;;;1.73;;
38717;SDS011;24468;52.128;9.278;2023-06-05T02:27:51;4.22;;;2.35;;
38717;SDS011;24468;52.128;9.278;2023-06-05T02:30:18;3.45;;;1.73;;
38717;SDS011;24468;52.128;9.278;2023-06-05T02:32:45;2.33;;;1.70;;
38717;SDS011;24468;52.128;9.278;2023-06-05T02:35:11;2.38;;;2.13;;
38717;SDS011;24468;52.128;9.278;2023-06-05T02:37:38;4.53;;;2.10;;
38717;SDS011;24468;52.128;9.278;2023-06-05T02:40:12;2.67;;;1.65;;
38717;SDS011;24468;52.128;9.278;2023-06-05T02:42:39;2.25;;;1.83;;
38717;SDS011;24468;52.128;9.278;2023-06-05T02:45:05;3.88;;;2.10;;
38717;SDS011;24468;52.128;9.278;2023-06-05T02:47:32;1.83;;;1.70;;
38717;SDS011;24468;52.128;9.278;2023-06-05T02:49:58;2.83;;;1.92;;
38717;SDS011;24468;52.128;9.278;2023-06-05T02:52:25;3.17;;;2.00;;
38717;SDS011;24468;52.128;9.278;2023-06-05T02:54:50;2.03;;;1.60;;
38717;SDS011;24468;52.128;9.278;2023-06-05T02:57:16;3.88;;;1.98;;
38717;SDS011;24468;52.128;9.278;2023-06-05T02:59:42;3.17;;;2.13;;
38717;SDS011;24468;52.128;9.278;2023-06-05T03:02:09;5.88;;;1.80;;
38717;SDS011;24468;52.128;9.278;2023-06-05T03:04:35;2.35;;;1.95;;
38717;SDS011;24468;52.128;9.278;2023-06-05T03:07:01;2.85;;;2.15;;
38717;SDS011;24468;52.128;9.278;2023-06-05T03:09:28;3.13;;;2.38;;
38717;SDS011;24468;52.128;9.278;2023-06-05T03:11:55;2.85;;;1.83;;
38717;SDS011;24468;52.128;9.278;2023-06-05T03:14:22;2.08;;;1.63;;
38717;SDS011;24468;52.128;9.278;2023-06-05T03:16:47;2.65;;;2.10;;
38717;SDS011;24468;52.128;9.278;2023-06-05T03:19:13;3.45;;;1.75;;
38717;SDS011;24468;52.128;9.278;2023-06-05T03:21:38;3.65;;;1.73;;
38717;SDS011;24468;52.128;9.278;2023-06-05T03:24:10;1.83;;;1.50;;
38717;SDS011;24468;52.128;9.278;2023-06-05T03:26:41;4.10;;;1.98;;
38717;SDS011;24468;52.128;9.278;2023-06-05T03:29:08;4.72;;;1.80;;
38717;SDS011;24468;52.128;9.278;2023-06-05T03:31:35;3.50;;;2.33;;
38717;SDS011;24468;52.128;9.278;2023-06-05T03:34:01;5.88;;;2.15;;
38717;SDS011;24468;52.128;9.278;2023-06-05T03:36:28;2.78;;;1.60;;
38717;SDS011;24468;52.128;9.278;2023-06-05T03:38:55;2.78;;;1.63;;
38717;SDS011;24468;52.128;9.278;2023-06-05T03:41:22;4.32;;;1.90;;
38717;SDS011;24468;52.128;9.278;2023-06-05T03:43:48;4.25;;;2.10;;
38717;SDS011;24468;52.128;9.278;2023-06-05T03:46:17;1.98;;;1.70;;
38717;SDS011;24468;52.128;9.278;2023-06-05T03:48:45;3.33;;;2.33;;
38717;SDS011;24468;52.128;9.278;2023-06-05T03:51:13;2.50;;;1.67;;
38717;SDS011;24468;52.128;9.278;2023-06-05T03:53:43;3.45;;;2.22;;
38717;SDS011;24468;52.128;9.278;2023-06-05T03:56:09;1.85;;;1.67;;
38717;SDS011;24468;52.128;9.278;2023-06-05T03:58:37;2.92;;;2.08;;
38717;SDS011;24468;52.128;9.278;2023-06-05T04:01:04;3.78;;;2.20;;
38717;SDS011;24468;52.128;9.278;2023-06-05T04:03:30;2.50;;;1.90;;
38717;SDS011;24468;52.128;9.278;2023-06-05T04:05:56;3.03;;;1.88;;
38717;SDS011;24468;52.128;9.278;2023-06-05T04:08:22;4.13;;;2.15;;
38717;SDS011;24468;52.128;9.278;2023-06-05T04:10:48;2.60;;;1.65;;
38717;SDS011;24468;52.128;9.278;2023-06-05T04:13:13;2.58;;;1.70;;
38717;SDS011;24468;52.128;9.278;2023-06-05T04:15:39;6.35;;;1.90;;
38717;SDS011;24468;52.128;9.278;2023-06-05T04:18:04;2.65;;;2.03;;
38717;SDS011;24468;52.128;9.278;2023-06-05T04:20:30;4.43;;;2.25;;
38717;SDS011;24468;52.128;9.278;2023-06-05T04:22:55;2.83;;;1.70;;
38717;SDS011;24468;52.128;9.278;2023-06-05T04:25:21;3.75;;;1.70;;
38717;SDS011;24468;52.128;9.278;2023-06-05T04:27:48;1.83;;;1.52;;
38717;SDS011;24468;52.128;9.278;2023-06-05T04:30:16;3.70;;;2.00;;
38717;SDS011;24468;52.128;9.278;2023-06-05T04:32:41;3.50;;;1.75;;
38717;SDS011;24468;52.128;9.278;2023-06-05T04:35:07;6.88;;;2.05;;
38717;SDS011;24468;52.128;9.278;2023-06-05T04:37:35;3.33;;;2.15;;
38717;SDS011;24468;52.128;9.278;2023-06-05T04:40:02;5.57;;;2.22;;
38717;SDS011;24468;52.128;9.278;2023-06-05T04:42:31;2.85;;;1.83;;
38717;SDS011;24468;52.128;9.278;2023-06-05T04:45:02;3.13;;;1.70;;
38717;SDS011;24468;52.128;9.278;2023-06-05T04:47:30;4.90;;;2.22;;
38717;SDS011;24468;52.128;9.278;2023-06-05T04:50:03;2.35;;;1.90;;
38717;SDS011;24468;52.128;9.278;2023-06-05T04:52:30;4.43;;;2.55;;
38717;SDS011;24468;52.128;9.278;2023-06-05T04:54:57;3.33;;;2.30;;
38717;SDS011;24468;52.128;9.278;2023-06-05T04:57:26;2.75;;;2.30;;
38717;SDS011;24468;52.128;9.278;2023-06-05T04:59:53;4.03;;;2.63;;
38717;SDS011;24468;52.128;9.278;2023-06-05T05:02:19;6.13;;;2.70;;
38717;SDS011;24468;52.128;9.278;2023-06-05T05:04:45;4.18;;;3.20;;
38717;SDS011;24468;52.128;9.278;2023-06-05T05:07:11;5.10;;;2.67;;
38717;SDS011;24468;52.128;9.278;2023-06-05T05:09:40;4.82;;;3.00;;
38717;SDS011;24468;52.128;9.278;2023-06-05T05:12:07;3.65;;;2.95;;
38717;SDS011;24468;52.128;9.278;2023-06-05T05:14:33;5.55;;;3.42;;
38717;SDS011;24468;52.128;9.278;2023-06-05T05:16:58;6.55;;;2.85;;
38717;SDS011;24468;52.128;9.278;2023-06-05T05:19:26;3.65;;;3.13;;
38717;SDS011;24468;52.128;9.278;2023-06-05T05:21:52;5.32;;;3.35;;
38717;SDS011;24468;52.128;9.278;2023-06-05T05:24:17;7.32;;;3.40;;
38717;SDS011;24468;52.128;9.278;2023-06-05T05:26:43;4.72;;;3.05;;
38717;SDS011;24468;52.128;9.278;2023-06-05T05:29:09;6.90;;;3.38;;
38717;SDS011;24468;52.128;9.278;2023-06-05T05:31:34;4.65;;;4.00;;
38717;SDS011;24468;52.128;9.278;2023-06-05T05:34:00;4.68;;;3.72;;
38717;SDS011;24468;52.128;9.278;2023-06-05T05:36:26;6.55;;;3.75;;
38717;SDS011;24468;52.128;9.278;2023-06-05T05:38:52;9.60;;;4.10;;
38717;SDS011;24468;52.128;9.278;2023-06-05T05:41:18;8.65;;;4.65;;
38717;SDS011;24468;52.128;9.278;2023-06-05T05:43:44;5.65;;;4.20;;
38717;SDS011;24468;52.128;9.278;2023-06-05T05:46:09;7.40;;;4.00;;
38717;SDS011;24468;52.128;9.278;2023-06-05T05:48:35;9.00;;;4.43;;
38717;SDS011;24468;52.128;9.278;2023-06-05T05:51:02;9.48;;;5.18;;
38717;SDS011;24468;52.128;9.278;2023-06-05T05:53:27;5.75;;;3.65;;
38717;SDS011;24468;52.128;9.278;2023-06-05T05:55:53;6.45;;;4.90;;
38717;SDS011;24468;52.128;9.278;2023-06-05T05:58:19;6.05;;;4.35;;
38717;SDS011;24468;52.128;9.278;2023-06-05T06:00:45;5.13;;;3.90;;
38717;SDS011;24468;52.128;9.278;2023-06-05T06:03:11;6.80;;;4.60;;
38717;SDS011;24468;52.128;9.278;2023-06-05T06:05:38;5.75;;;3.75;;
38717;SDS011;24468;52.128;9.278;2023-06-05T06:08:04;5.22;;;4.30;;
38717;SDS011;24468;52.128;9.278;2023-06-05T06:10:31;5.13;;;3.83;;
38717;SDS011;24468;52.128;9.278;2023-06-05T06:12:59;8.50;;;4.70;;
38717;SDS011;24468;52.128;9.278;2023-06-05T06:15:25;5.90;;;4.63;;
38717;SDS011;24468;52.128;9.278;2023-06-05T06:17:52;8.15;;;4.60;;
38717;SDS011;24468;52.128;9.278;2023-06-05T06:20:17;9.15;;;4.57;;
38717;SDS011;24468;52.128;9.278;2023-06-05T06:22:43;6.20;;;4.30;;
38717;SDS011;24468;52.128;9.278;2023-06-05T06:25:10;7.10;;;4.18;;
38717;SDS011;24468;52.128;9.278;2023-06-05T06:27:37;6.47;;;4.30;;
38717;SDS011;24468;52.128;9.278;2023-06-05T06:30:03;5.63;;;4.68;;
38717;SDS011;24468;52.128;9.278;2023-06-05T06:32:30;5.40;;;4.75;;
38717;SDS011;24468;52.128;9.278;2023-06-05T06:34:56;9.55;;;4.95;;
38717;SDS011;24468;52.128;9.278;2023-06-05T06:37:22;7.72;;;4.75;;
38717;SDS011;24468;52.128;9.278;2023-06-05T06:39:48;5.45;;;4.38;;
38717;SDS011;24468;52.128;9.278;2023-06-05T06:42:14;9.38;;;4.05;;
38717;SDS011;24468;52.128;9.278;2023-06-05T06:44:40;5.80;;;5.20;;
38717;SDS011;24468;52.128;9.278;2023-06-05T06:47:06;4.97;;;3.92;;
38717;SDS011;24468;52.128;9.278;2023-06-05T06:49:33;5.75;;;3.97;;
38717;SDS011;24468;52.128;9.278;2023-06-05T06:52:02;5.57;;;4.43;;
38717;SDS011;24468;52.128;9.278;2023-06-05T06:54:28;4.82;;;4.32;;
38717;SDS011;24468;52.128;9.278;2023-06-05T06:56:54;5.43;;;3.67;;
38717;SDS011;24468;52.128;9.278;2023-06-05T06:59:20;6.38;;;4.10;;
38717;SDS011;24468;52.128;9.278;2023-06-05T07:01:46;4.82;;;3.88;;
38717;SDS011;24468;52.128;9.278;2023-06-05T07:04:33;5.07;;;3.80;;
38717;SDS011;24468;52.128;9.278;2023-06-05T07:06:59;7.70;;;4.28;;
38717;SDS011;24468;52.128;9.278;2023-06-05T07:09:25;8.80;;;4.35;;
38717;SDS011;24468;52.128;9.278;2023-06-05T07:11:51;5.55;;;3.80;;
38717;SDS011;24468;52.128;9.278;2023-06-05T07:14:16;8.27;;;4.22;;
38717;SDS011;24468;52.128;9.278;2023-06-05T07:16:42;7.32;;;3.80;;
38717;SDS011;24468;52.128;9.278;2023-06-05T07:19:07;5.95;;;3.78;;
38717;SDS011;24468;52.128;9.278;2023-06-05T07:21:34;8.68;;;4.93;;
38717;SDS011;24468;52.128;9.278;2023-06-05T07:24:02;6.32;;;3.53;;
38717;SDS011;24468;52.128;9.278;2023-06-05T07:26:29;6.13;;;4.00;;
38717;SDS011;24468;52.128;9.278;2023-06-05T07:28:55;6.70;;;3.80;;
38717;SDS011;24468;52.128;9.278;2023-06-05T07:31:20;5.90;;;3.63;;
38717;SDS011;24468;52.128;9.278;2023-06-05T07:33:46;6.88;;;3.65;;
38717;SDS011;24468;52.128;9.278;2023-06-05T07:36:13;6.72;;;3.40;;
38717;SDS011;24468;52.128;9.278;2023-06-05T07:38:39;5.28;;;3.83;;
38717;SDS011;24468;52.128;9.278;2023-06-05T07:41:05;7.80;;;3.78;;
38717;SDS011;24468;52.128;9.278;2023-06-05T07:43:33;5.40;;;3.47;;
38717;SDS011;24468;52.128;9.278;2023-06-05T07:45:59;4.30;;;3.05;;
38717;SDS011;24468;52.128;9.278;2023-06-05T07:48:25;6.57;;;3.00;;
38717;SDS011;24468;52.128;9.278;2023-06-05T07:50:51;4.95;;;3.65;;
38717;SDS011;24468;52.128;9.278;2023-06-05T07:53:16;3.33;;;3.03;;
38717;SDS011;24468;52.128;9.278;2023-06-05T07:55:42;5.38;;;3.97;;
38717;SDS011;24468;52.128;9.278;2023-06-05T07:58:08;5.07;;;3.22;;
38717;SDS011;24468;52.128;9.278;2023-06-05T08:00:33;4.55;;;2.97;;
38717;SDS011;24468;52.128;9.278;2023-06-05T08:02:59;3.55;;;2.45;;
38717;SDS011;24468;52.128;9.278;2023-06-05T08:05:25;5.00;;;3.15;;
38717;SDS011;24468;52.128;9.278;2023-06-05T08:07:50;10.57;;;3.58;;
38717;SDS011;24468;52.128;9.278;2023-06-05T08:10:16;4.78;;;3.22;;
38717;SDS011;24468;52.128;9.278;2023-06-05T08:12:42;6.22;;;2.97;;
38717;SDS011;24468;52.128;9.278;2023-06-05T08:15:07;6.20;;;2.90;;
38717;SDS011;24468;52.128;9.278;2023-06-05T08:17:33;2.88;;;2.28;;
38717;SDS011;24468;52.128;9.278;2023-06-05T08:19:59;6.82;;;2.78;;
38717;SDS011;24468;52.128;9.278;2023-06-05T08:22:25;5.57;;;3.00;;
38717;SDS011;24468;52.128;9.278;2023-06-05T08:24:50;6.43;;;3.03;;
38717;SDS011;24468;52.128;9.278;2023-06-05T08:27:18;3.95;;;2.85;;
38717;SDS011;24468;52.128;9.278;2023-06-05T08:29:44;5.47;;;2.65;;
38717;SDS011;24468;52.128;9.278;2023-06-05T08:32:10;5.60;;;2.55;;
38717;SDS011;24468;52.128;9.278;2023-06-05T08:34:35;5.53;;;3.15;;
38717;SDS011;24468;52.128;9.278;2023-06-05T08:37:01;5.03;;;2.55;;
38717;SDS011;24468;52.128;9.278;2023-06-05T08:39:27;8.75;;;2.83;;
38717;SDS011;24468;52.128;9.278;2023-06-05T08:42:00;3.72;;;2.80;;
38717;SDS011;24468;52.128;9.278;2023-06-05T08:44:28;5.35;;;2.97;;
38717;SDS011;24468;52.128;9.278;2023-06-05T08:46:59;9.27;;;3.15;;
38717;SDS011;24468;52.128;9.278;2023-06-05T08:49:26;3.50;;;2.85;;
38717;SDS011;24468;52.128;9.278;2023-06-05T08:52:02;6.10;;;2.80;;
38717;SDS011;24468;52.128;9.278;2023-06-05T08:54:31;4.93;;;2.78;;
38717;SDS011;24468;52.128;9.278;2023-06-05T08:57:06;5.68;;;3.13;;
38717;SDS011;24468;52.128;9.278;2023-06-05T08:59:33;3.97;;;2.72;;
38717;SDS011;24468;52.128;9.278;2023-06-05T09:01:59;6.68;;;2.83;;
38717;SDS011;24468;52.128;9.278;2023-06-05T09:04:25;4.78;;;2.40;;
38717;SDS011;24468;52.128;9.278;2023-06-05T09:06:55;7.13;;;2.28;;
38717;SDS011;24468;52.128;9.278;2023-06-05T09:09:24;3.90;;;2.40;;
38717;SDS011;24468;52.128;9.278;2023-06-05T09:12:08;4.20;;;2.42;;
38717;SDS011;24468;52.128;9.278;2023-06-05T09:14:34;7.68;;;2.92;;
38717;SDS011;24468;52.128;9.278;2023-06-05T09:17:01;4.85;;;2.70;;
38717;SDS011;24468;52.128;9.278;2023-06-05T09:19:38;5.45;;;2.10;;
38717;SDS011;24468;52.128;9.278;2023-06-05T09:22:08;4.15;;;2.35;;
38717;SDS011;24468;52.128;9.278;2023-06-05T09:24:35;4.10;;;2.72;;
38717;SDS011;24468;52.128;9.278;2023-06-05T09:27:03;7.22;;;3.10;;
38717;SDS011;24468;52.128;9.278;2023-06-05T09:29:34;5.60;;;2.30;;
38717;SDS011;24468;52.128;9.278;2023-06-05T09:32:03;3.70;;;2.20;;
38717;SDS011;24468;52.128;9.278;2023-06-05T09:34:43;3.33;;;2.25;;
38717;SDS011;24468;52.128;9.278;2023-06-05T09:37:11;3.70;;;2.75;;
38717;SDS011;24468;52.128;9.278;2023-06-05T09:39:41;4.95;;;2.40;;
38717;SDS011;24468;52.128;9.278;2023-06-05T09:42:11;8.25;;;2.88;;
38717;SDS011;24468;52.128;9.278;2023-06-05T09:44:36;6.30;;;2.85;;
38717;SDS011;24468;52.128;9.278;2023-06-05T09:47:05;7.47;;;2.33;;
38717;SDS011;24468;52.128;9.278;2023-06-05T09:52:06;4.03;;;2.15;;
38717;SDS011;24468;52.128;9.278;2023-06-05T09:54:38;4.00;;;2.30;;
38717;SDS011;24468;52.128;9.278;2023-06-05T09:57:13;3.03;;;2.33;;
38717;SDS011;24468;52.128;9.278;2023-06-05T09:59:50;3.78;;;2.50;;
38717;SDS011;24468;52.128;9.278;2023-06-05T10:02:19;3.47;;;1.83;;
38717;SDS011;24468;52.128;9.278;2023-06-05T10:04:59;8.52;;;2.53;;
38717;SDS011;24468;52.128;9.278;2023-06-05T10:09:55;3.63;;;1.70;;
38717;SDS011;24468;52.128;9.278;2023-06-05T10:12:23;6.95;;;2.70;;
38717;SDS011;24468;52.128;9.278;2023-06-05T10:14:52;4.60;;;2.17;;
38717;SDS011;24468;52.128;9.278;2023-06-05T10:17:19;2.55;;;1.67;;
38717;SDS011;24468;52.128;9.278;2023-06-05T10:19:46;3.25;;;1.73;;
38717;SDS011;24468;52.128;9.278;2023-06-05T10:22:12;3.08;;;1.90;;
38717;SDS011;24468;52.128;9.278;2023-06-05T10:24:39;4.13;;;1.85;;
38717;SDS011;24468;52.128;9.278;2023-06-05T10:36:43;6.57;;;1.98;;
38717;SDS011;24468;52.128;9.278;2023-06-05T10:39:28;1.55;;;1.30;;
38717;SDS011;24468;52.128;9.278;2023-06-05T10:41:55;3.00;;;1.48;;
38717;SDS011;24468;52.128;9.278;2023-06-05T10:44:41;1.90;;;1.38;;
38717;SDS011;24468;52.128;9.278;2023-06-05T10:52:44;2.25;;;1.23;;
38717;SDS011;24468;52.128;9.278;2023-06-05T10:55:14;2.88;;;1.15;;
38717;SDS011;24468;52.128;9.278;2023-06-05T11:00:30;1.63;;;1.02;;
38717;SDS011;24468;52.128;9.278;2023-06-05T11:02:56;2.88;;;1.33;;
38717;SDS011;24468;52.128;9.278;2023-06-05T11:05:23;1.23;;;1.00;;
38717;SDS011;24468;52.128;9.278;2023-06-05T11:08:09;3.38;;;1.40;;
38717;SDS011;24468;52.128;9.278;2023-06-05T11:16:25;2.23;;;1.17;;
38717;SDS011;24468;52.128;9.278;2023-06-05T11:18:52;3.65;;;1.10;;
38717;SDS011;24468;52.128;9.278;2023-06-05T11:21:19;1.63;;;1.45;;
38717;SDS011;24468;52.128;9.278;2023-06-05T11:24:13;2.03;;;1.30;;
38717;SDS011;24468;52.128;9.278;2023-06-05T11:26:41;1.90;;;1.23;;
38717;SDS011;24468;52.128;9.278;2023-06-05T11:29:09;3.15;;;1.52;;
38717;SDS011;24468;52.128;9.278;2023-06-05T11:31:42;4.10;;;1.33;;
38717;SDS011;24468;52.128;9.278;2023-06-05T11:34:12;2.00;;;1.30;;
38717;SDS011;24468;52.128;9.278;2023-06-05T11:36:38;2.00;;;1.23;;
38717;SDS011;24468;52.128;9.278;2023-06-05T11:39:05;2.63;;;1.40;;
38717;SDS011;24468;52.128;9.278;2023-06-05T11:41:30;1.75;;;1.27;;
38717;SDS011;24468;52.128;9.278;2023-06-05T11:43:56;3.17;;;1.60;;
38717;SDS011;24468;52.128;9.278;2023-06-05T11:46:41;3.60;;;1.67;;
38717;SDS011;24468;52.128;9.278;2023-06-05T11:49:18;3.15;;;1.85;;
38717;SDS011;24468;52.128;9.278;2023-06-05T11:51:52;2.20;;;1.20;;
38717;SDS011;24468;52.128;9.278;2023-06-05T11:54:25;3.50;;;1.30;;
38717;SDS011;24468;52.128;9.278;2023-06-05T11:56:58;3.13;;;1.77;;
38717;SDS011;24468;52.128;9.278;2023-06-05T11:59:33;4.45;;;1.98;;
38717;SDS011;24468;52.128;9.278;2023-06-05T12:02:00;2.65;;;1.95;;
38717;SDS011;24468;52.128;9.278;2023-06-05T12:04:28;3.15;;;1.70;;
38717;SDS011;24468;52.128;9.278;2023-06-05T12:06:55;4.38;;;1.58;;
38717;SDS011;24468;52.128;9.278;2023-06-05T12:09:21;5.45;;;2.38;;
38717;SDS011;24468;52.128;9.278;2023-06-05T12:11:47;2.30;;;1.65;;
38717;SDS011;24468;52.128;9.278;2023-06-05T12:14:13;2.03;;;1.40;;
38717;SDS011;24468;52.128;9.278;2023-06-05T12:16:57;3.75;;;1.75;;
38717;SDS011;24468;52.128;9.278;2023-06-05T12:19:23;2.50;;;2.20;;
38717;SDS011;24468;52.128;9.278;2023-06-05T12:21:49;1.45;;;1.35;;
38717;SDS011;24468;52.128;9.278;2023-06-05T12:24:24;3.42;;;1.83;;
38717;SDS011;24468;52.128;9.278;2023-06-05T12:29:27;2.53;;;1.73;;
38717;SDS011;24468;52.128;9.278;2023-06-05T12:31:58;5.70;;;1.80;;
38717;SDS011;24468;52.128;9.278;2023-06-05T12:34:42;3.95;;;2.20;;
38717;SDS011;24468;52.128;9.278;2023-06-05T12:37:28;2.28;;;1.38;;
38717;SDS011;24468;52.128;9.278;2023-06-05T12:40:02;4.03;;;1.80;;
38717;SDS011;24468;52.128;9.278;2023-06-05T12:42:38;3.15;;;1.50;;
38717;SDS011;24468;52.128;9.278;2023-06-05T12:45:08;5.78;;;2.38;;
38717;SDS011;24468;52.128;9.278;2023-06-05T12:47:35;2.10;;;1.85;;
38717;SDS011;24468;52.128;9.278;2023-06-05T12:50:03;5.47;;;2.40;;
38717;SDS011;24468;52.128;9.278;2023-06-05T12:52:31;1.77;;;1.67;;
38717;SDS011;24468;52.128;9.278;2023-06-05T12:54:56;3.08;;;1.92;;
38717;SDS011;24468;52.128;9.278;2023-06-05T12:57:22;2.95;;;2.33;;
38717;SDS011;24468;52.128;9.278;2023-06-05T12:59:49;2.50;;;2.00;;
38717;SDS011;24468;52.128;9.278;2023-06-05T13:02:18;2.90;;;2.70;;
38717;SDS011;24468;52.128;9.278;2023-06-05T13:04:47;4.63;;;2.10;;
38717;SDS011;24468;52.128;9.278;2023-06-05T13:07:12;2.65;;;2.25;;
38717;SDS011;24468;52.128;9.278;2023-06-05T13:09:38;3.63;;;2.22;;
38717;SDS011;24468;52.128;9.278;2023-06-05T13:12:04;3.22;;;1.75;;
38717;SDS011;24468;52.128;9.278;2023-06-05T13:14:30;3.78;;;2.50;;
38717;SDS011;24468;52.128;9.278;2023-06-05T13:16:57;2.22;;;2.03;;
38717;SDS011;24468;52.128;9.278;2023-06-05T13:19:23;3.03;;;1.90;;
38717;SDS011;24468;52.128;9.278;2023-06-05T13:21:50;2.72;;;2.00;;
38717;SDS011;24468;52.128;9.278;2023-06-05T13:24:17;5.35;;;2.00;;
38717;SDS011;24468;52.128;9.278;2023-06-05T13:26:43;3.85;;;1.90;;
38717;SDS011;24468;52.128;9.278;2023-06-05T13:29:09;3.15;;;1.63;;
38717;SDS011;24468;52.128;9.278;2023-06-05T13:31:35;3.45;;;1.98;;
38717;SDS011;24468;52.128;9.278;2023-06-05T13:34:01;2.10;;;1.63;;
38717;SDS011;24468;52.128;9.278;2023-06-05T13:36:27;2.50;;;1.90;;
38717;SDS011;24468;52.128;9.278;2023-06-05T13:38:53;2.92;;;2.00;;
38717;SDS011;24468;52.128;9.278;2023-06-05T13:41:19;2.10;;;1.90;;
38717;SDS011;24468;52.128;9.278;2023-06-05T13:43:46;2.80;;;1.52;;
38717;SDS011;24468;52.128;9.278;2023-06-05T13:46:11;2.00;;;1.80;;
38717;SDS011;24468;52.128;9.278;2023-06-05T13:48:37;2.50;;;2.05;;
38717;SDS011;24468;52.128;9.278;2023-06-05T13:51:03;1.92;;;1.73;;
38717;SDS011;24468;52.128;9.278;2023-06-05T13:53:29;3.28;;;1.90;;
38717;SDS011;24468;52.128;9.278;2023-06-05T13:56:03;2.35;;;2.08;;
38717;SDS011;24468;52.128;9.278;2023-06-05T13:58:29;3.10;;;1.88;;
38717;SDS011;24468;52.128;9.278;2023-06-05T14:00:56;2.75;;;1.60;;
38717;SDS011;24468;52.128;9.278;2023-06-05T14:03:22;3.95;;;2.03;;
38717;SDS011;24468;52.128;9.278;2023-06-05T14:05:48;2.17;;;1.63;;
38717;SDS011;24468;52.128;9.278;2023-06-05T14:08:15;5.95;;;1.90;;
38717;SDS011;24468;52.128;9.278;2023-06-05T14:10:41;3.10;;;1.70;;
38717;SDS011;24468;52.128;9.278;2023-06-05T14:13:06;3.88;;;1.92;;
38717;SDS011;24468;52.128;9.278;2023-06-05T14:15:32;3.58;;;2.05;;
38717;SDS011;24468;52.128;9.278;2023-06-05T14:18:00;3.22;;;1.85;;
38717;SDS011;24468;52.128;9.278;2023-06-05T14:20:28;1.98;;;1.58;;
38717;SDS011;24468;52.128;9.278;2023-06-05T14:22:55;4.13;;;1.70;;
38717;SDS011;24468;52.128;9.278;2023-06-05T14:25:21;2.28;;;1.85;;
38717;SDS011;24468;52.128;9.278;2023-06-05T14:27:47;3.15;;;1.85;;
38717;SDS011;24468;52.128;9.278;2023-06-05T14:30:12;3.17;;;1.88;;
38717;SDS011;24468;52.128;9.278;2023-06-05T14:32:38;4.00;;;1.90;;
38717;SDS011;24468;52.128;9.278;2023-06-05T14:35:04;2.45;;;2.00;;
38717;SDS011;24468;52.128;9.278;2023-06-05T14:37:30;3.55;;;1.60;;
38717;SDS011;24468;52.128;9.278;2023-06-05T14:39:56;3.22;;;1.95;;
38717;SDS011;24468;52.128;9.278;2023-06-05T14:42:21;5.72;;;2.00;;
38717;SDS011;24468;52.128;9.278;2023-06-05T14:44:48;5.43;;;3.10;;
38717;SDS011;24468;52.128;9.278;2023-06-05T14:47:14;3.92;;;2.00;;
38717;SDS011;24468;52.128;9.278;2023-06-05T14:49:39;4.85;;;2.80;;
38717;SDS011;24468;52.128;9.278;2023-06-05T14:52:05;4.22;;;1.90;;
38717;SDS011;24468;52.128;9.278;2023-06-05T14:54:31;3.88;;;1.80;;
38717;SDS011;24468;52.128;9.278;2023-06-05T14:56:56;8.05;;;4.50;;
38717;SDS011;24468;52.128;9.278;2023-06-05T14:59:22;2.65;;;2.10;;
38717;SDS011;24468;52.128;9.278;2023-06-05T15:01:48;3.60;;;1.80;;
38717;SDS011;24468;52.128;9.278;2023-06-05T15:04:13;3.40;;;2.20;;
38717;SDS011;24468;52.128;9.278;2023-06-05T15:06:39;1.95;;;1.85;;
38717;SDS011;24468;52.128;9.278;2023-06-05T15:09:05;4.82;;;2.90;;
38717;SDS011;24468;52.128;9.278;2023-06-05T15:11:31;4.80;;;2.30;;
38717;SDS011;24468;52.128;9.278;2023-06-05T15:13:57;4.00;;;1.90;;
38717;SDS011;24468;52.128;9.278;2023-06-05T15:16:22;3.38;;;2.28;;
38717;SDS011;24468;52.128;9.278;2023-06-05T15:18:49;4.55;;;2.35;;
38717;SDS011;24468;52.128;9.278;2023-06-05T15:21:15;4.05;;;2.50;;
38717;SDS011;24468;52.128;9.278;2023-06-05T15:23:41;6.40;;;2.17;;
38717;SDS011;24468;52.128;9.278;2023-06-05T15:26:06;3.13;;;1.95;;
38717;SDS011;24468;52.128;9.278;2023-06-05T15:28:32;6.93;;;2.40;;